sensor_id;sensor_type;location;lat;lon;timestamp;pressure;altitude;pressure_sealevel;temperature
15680;BMP180;15488;48.114;11.532;2023-04-01T00:02:17;94148.00;;;15.20
15680;BMP180;15488;48.114;11.532;2023-04-01T00:04:45;94130.00;;;15.20
15680;BMP180;15488;48.114;11.532;2023-04-01T00:07:13;94132.00;;;15.30
15680;BMP180;15488;48.114;11.532;2023-04-01T00:09:40;94134.00;;;15.20
15680;BMP180;15488;48.114;11.532;2023-04-01T00:12:09;94141.00;;;15.20
15680;BMP180;15488;48.114;11.532;2023-04-01T00:14:36;94131.00;;;15.20
15680;BMP180;15488;48.114;11.532;2023-04-01T00:17:05;94126.00;;;15.30
15680;BMP180;15488;48.114;11.532;2023-04-01T00:19:33;94124.00;;;15.20
15680;BMP180;15488;48.114;11.532;2023-04-01T00:22:00;94114.00;;;15.20
15680;BMP180;15488;48.114;11.532;2023-04-01T00:24:28;94118.00;;;15.20
15680;BMP180;15488;48.114;11.532;2023-04-01T00:26:56;94112.00;;;15.20
15680;BMP180;15488;48.114;11.532;2023-04-01T00:29:25;94106.00;;;15.20
15680;BMP180;15488;48.114;11.532;2023-04-01T00:31:55;94109.00;;;15.20
15680;BMP180;15488;48.114;11.532;2023-04-01T00:34:23;94107.00;;;15.20
15680;BMP180;15488;48.114;11.532;2023-04-01T00:36:52;94106.00;;;15.30
15680;BMP180;15488;48.114;11.532;2023-04-01T00:39:20;94099.00;;;15.30
15680;BMP180;15488;48.114;11.532;2023-04-01T00:41:48;94114.00;;;15.30
15680;BMP180;15488;48.114;11.532;2023-04-01T00:44:18;94108.00;;;15.30
15680;BMP180;15488;48.114;11.532;2023-04-01T00:46:47;94107.00;;;15.30
15680;BMP180;15488;48.114;11.532;2023-04-01T00:49:16;94100.00;;;15.30
15680;BMP180;15488;48.114;11.532;2023-04-01T00:51:46;94114.00;;;15.30
15680;BMP180;15488;48.114;11.532;2023-04-01T00:54:17;94100.00;;;15.30
15680;BMP180;15488;48.114;11.532;2023-04-01T00:56:48;94098.00;;;15.30
15680;BMP180;15488;48.114;11.532;2023-04-01T00:59:20;94117.00;;;15.40
15680;BMP180;15488;48.114;11.532;2023-04-01T01:01:50;94098.00;;;15.50
15680;BMP180;15488;48.114;11.532;2023-04-01T01:04:26;94105.00;;;15.40
15680;BMP180;15488;48.114;11.532;2023-04-01T01:07:00;94108.00;;;15.40
15680;BMP180;15488;48.114;11.532;2023-04-01T01:09:35;94106.00;;;15.40
15680;BMP180;15488;48.114;11.532;2023-04-01T01:12:10;94097.00;;;15.40
15680;BMP180;15488;48.114;11.532;2023-04-01T01:14:51;94099.00;;;15.50
15680;BMP180;15488;48.114;11.532;2023-04-01T01:17:26;94103.00;;;15.50
15680;BMP180;15488;48.114;11.532;2023-04-01T01:20:30;94093.00;;;15.40
15680;BMP180;15488;48.114;11.532;2023-04-01T01:26:07;94102.00;;;15.40
15680;BMP180;15488;48.114;11.532;2023-04-01T01:28:44;94101.00;;;15.30
15680;BMP180;15488;48.114;11.532;2023-04-01T01:31:20;94097.00;;;15.30
15680;BMP180;15488;48.114;11.532;2023-04-01T01:34:09;94100.00;;;15.30
15680;BMP180;15488;48.114;11.532;2023-04-01T01:36:43;94104.00;;;15.40
15680;BMP180;15488;48.114;11.532;2023-04-01T01:39:13;94101.00;;;15.30
15680;BMP180;15488;48.114;11.532;2023-04-01T01:41:42;94096.00;;;15.30
15680;BMP180;15488;48.114;11.532;2023-04-01T01:44:14;94090.00;;;15.40
15680;BMP180;15488;48.114;11.532;2023-04-01T01:46:43;94093.00;;;15.40
15680;BMP180;15488;48.114;11.532;2023-04-01T01:49:12;94102.00;;;15.40
15680;BMP180;15488;48.114;11.532;2023-04-01T01:51:41;94086.00;;;15.40
15680;BMP180;15488;48.114;11.532;2023-04-01T01:54:12;94080.00;;;15.30
15680;BMP180;15488;48.114;11.532;2023-04-01T01:56:42;94087.00;;;15.30
15680;BMP180;15488;48.114;11.532;2023-04-01T01:59:12;94088.00;;;15.30
15680;BMP180;15488;48.114;11.532;2023-04-01T02:01:43;94107.00;;;15.20
15680;BMP180;15488;48.114;11.532;2023-04-01T02:04:13;94093.00;;;15.20
15680;BMP180;15488;48.114;11.532;2023-04-01T02:06:47;94103.00;;;15.20
15680;BMP180;15488;48.114;11.532;2023-04-01T02:09:18;94121.00;;;15.20
15680;BMP180;15488;48.114;11.532;2023-04-01T02:11:48;94110.00;;;15.10
15680;BMP180;15488;48.114;11.532;2023-04-01T02:14:18;94113.00;;;15.10
15680;BMP180;15488;48.114;11.532;2023-04-01T02:16:51;94106.00;;;15.10
15680;BMP180;15488;48.114;11.532;2023-04-01T02:19:21;94120.00;;;15.00
15680;BMP180;15488;48.114;11.532;2023-04-01T02:21:55;94117.00;;;15.00
15680;BMP180;15488;48.114;11.532;2023-04-01T02:24:26;94111.00;;;15.00
15680;BMP180;15488;48.114;11.532;2023-04-01T02:26:54;94123.00;;;14.90
15680;BMP180;15488;48.114;11.532;2023-04-01T02:29:23;94098.00;;;14.90
15680;BMP180;15488;48.114;11.532;2023-04-01T02:31:53;94130.00;;;14.90
15680;BMP180;15488;48.114;11.532;2023-04-01T02:34:22;94112.00;;;15.00
15680;BMP180;15488;48.114;11.532;2023-04-01T02:36:52;94124.00;;;14.90
15680;BMP180;15488;48.114;11.532;2023-04-01T02:39:20;94122.00;;;14.90
15680;BMP180;15488;48.114;11.532;2023-04-01T02:41:47;94104.00;;;15.00
15680;BMP180;15488;48.114;11.532;2023-04-01T02:44:15;94124.00;;;14.90
15680;BMP180;15488;48.114;11.532;2023-04-01T02:46:43;94123.00;;;14.90
15680;BMP180;15488;48.114;11.532;2023-04-01T02:49:10;94119.00;;;14.90
15680;BMP180;15488;48.114;11.532;2023-04-01T02:51:38;94129.00;;;15.00
15680;BMP180;15488;48.114;11.532;2023-04-01T02:54:07;94105.00;;;14.90
15680;BMP180;15488;48.114;11.532;2023-04-01T02:56:34;94127.00;;;15.00
15680;BMP180;15488;48.114;11.532;2023-04-01T02:59:02;94108.00;;;15.00
15680;BMP180;15488;48.114;11.532;2023-04-01T03:01:29;94115.00;;;14.90
15680;BMP180;15488;48.114;11.532;2023-04-01T03:03:57;94118.00;;;14.90
15680;BMP180;15488;48.114;11.532;2023-04-01T03:06:24;94127.00;;;14.90
15680;BMP180;15488;48.114;11.532;2023-04-01T03:08:51;94123.00;;;14.90
15680;BMP180;15488;48.114;11.532;2023-04-01T03:11:20;94120.00;;;14.90
15680;BMP180;15488;48.114;11.532;2023-04-01T03:13:48;94119.00;;;14.80
15680;BMP180;15488;48.114;11.532;2023-04-01T03:16:16;94124.00;;;14.80
15680;BMP180;15488;48.114;11.532;2023-04-01T03:18:43;94123.00;;;14.90
15680;BMP180;15488;48.114;11.532;2023-04-01T03:21:19;94116.00;;;14.90
15680;BMP180;15488;48.114;11.532;2023-04-01T03:23:47;94115.00;;;14.80
15680;BMP180;15488;48.114;11.532;2023-04-01T03:26:14;94119.00;;;14.90
15680;BMP180;15488;48.114;11.532;2023-04-01T03:28:43;94131.00;;;14.80
15680;BMP180;15488;48.114;11.532;2023-04-01T03:31:11;94132.00;;;14.80
15680;BMP180;15488;48.114;11.532;2023-04-01T03:33:39;94130.00;;;14.70
15680;BMP180;15488;48.114;11.532;2023-04-01T03:36:07;94147.00;;;14.80
15680;BMP180;15488;48.114;11.532;2023-04-01T03:38:34;94128.00;;;14.80
15680;BMP180;15488;48.114;11.532;2023-04-01T03:41:02;94130.00;;;14.70
15680;BMP180;15488;48.114;11.532;2023-04-01T03:43:30;94138.00;;;14.80
15680;BMP180;15488;48.114;11.532;2023-04-01T03:45:59;94142.00;;;14.70
15680;BMP180;15488;48.114;11.532;2023-04-01T03:48:26;94140.00;;;14.70
15680;BMP180;15488;48.114;11.532;2023-04-01T03:50:53;94144.00;;;14.70
15680;BMP180;15488;48.114;11.532;2023-04-01T03:53:21;94158.00;;;14.60
15680;BMP180;15488;48.114;11.532;2023-04-01T03:55:48;94145.00;;;14.50
15680;BMP180;15488;48.114;11.532;2023-04-01T03:58:17;94148.00;;;14.50
15680;BMP180;15488;48.114;11.532;2023-04-01T04:00:44;94138.00;;;14.50
15680;BMP180;15488;48.114;11.532;2023-04-01T04:03:13;94133.00;;;14.40
15680;BMP180;15488;48.114;11.532;2023-04-01T04:05:46;94151.00;;;14.40
15680;BMP180;15488;48.114;11.532;2023-04-01T04:08:14;94144.00;;;14.40
15680;BMP180;15488;48.114;11.532;2023-04-01T04:10:43;94143.00;;;14.50
15680;BMP180;15488;48.114;11.532;2023-04-01T04:13:10;94145.00;;;14.50
15680;BMP180;15488;48.114;11.532;2023-04-01T04:15:39;94164.00;;;14.50
15680;BMP180;15488;48.114;11.532;2023-04-01T04:18:06;94147.00;;;14.60
15680;BMP180;15488;48.114;11.532;2023-04-01T04:20:35;94147.00;;;14.50
15680;BMP180;15488;48.114;11.532;2023-04-01T04:23:02;94147.00;;;14.60
15680;BMP180;15488;48.114;11.532;2023-04-01T04:25:30;94148.00;;;14.50
15680;BMP180;15488;48.114;11.532;2023-04-01T04:27:57;94159.00;;;14.60
15680;BMP180;15488;48.114;11.532;2023-04-01T04:30:24;94141.00;;;14.70
15680;BMP180;15488;48.114;11.532;2023-04-01T04:32:52;94146.00;;;14.60
15680;BMP180;15488;48.114;11.532;2023-04-01T04:35:19;94146.00;;;14.60
15680;BMP180;15488;48.114;11.532;2023-04-01T04:37:48;94152.00;;;14.60
15680;BMP180;15488;48.114;11.532;2023-04-01T04:40:16;94156.00;;;14.60
15680;BMP180;15488;48.114;11.532;2023-04-01T04:42:43;94151.00;;;14.70
15680;BMP180;15488;48.114;11.532;2023-04-01T04:45:10;94164.00;;;14.60
15680;BMP180;15488;48.114;11.532;2023-04-01T04:47:39;94163.00;;;14.70
15680;BMP180;15488;48.114;11.532;2023-04-01T04:50:08;94160.00;;;14.60
15680;BMP180;15488;48.114;11.532;2023-04-01T04:52:35;94167.00;;;14.70
15680;BMP180;15488;48.114;11.532;2023-04-01T04:55:05;94161.00;;;14.80
15680;BMP180;15488;48.114;11.532;2023-04-01T04:57:33;94170.00;;;14.70
15680;BMP180;15488;48.114;11.532;2023-04-01T05:00:00;94181.00;;;14.70
15680;BMP180;15488;48.114;11.532;2023-04-01T05:02:27;94172.00;;;14.70
15680;BMP180;15488;48.114;11.532;2023-04-01T05:04:56;94172.00;;;14.80
15680;BMP180;15488;48.114;11.532;2023-04-01T05:07:23;94180.00;;;14.90
15680;BMP180;15488;48.114;11.532;2023-04-01T05:09:50;94177.00;;;14.80
15680;BMP180;15488;48.114;11.532;2023-04-01T05:12:19;94192.00;;;14.90
15680;BMP180;15488;48.114;11.532;2023-04-01T05:14:47;94176.00;;;14.90
15680;BMP180;15488;48.114;11.532;2023-04-01T05:17:14;94168.00;;;15.00
15680;BMP180;15488;48.114;11.532;2023-04-01T05:19:41;94170.00;;;14.90
15680;BMP180;15488;48.114;11.532;2023-04-01T05:22:09;94165.00;;;14.90
15680;BMP180;15488;48.114;11.532;2023-04-01T05:24:36;94167.00;;;15.00
15680;BMP180;15488;48.114;11.532;2023-04-01T05:27:04;94165.00;;;14.90
15680;BMP180;15488;48.114;11.532;2023-04-01T05:29:33;94186.00;;;14.90
15680;BMP180;15488;48.114;11.532;2023-04-01T05:32:01;94166.00;;;15.00
15680;BMP180;15488;48.114;11.532;2023-04-01T05:34:28;94176.00;;;14.90
15680;BMP180;15488;48.114;11.532;2023-04-01T05:36:55;94161.00;;;14.70
15680;BMP180;15488;48.114;11.532;2023-04-01T05:39:23;94163.00;;;14.80
15680;BMP180;15488;48.114;11.532;2023-04-01T05:41:50;94172.00;;;14.70
15680;BMP180;15488;48.114;11.532;2023-04-01T05:44:18;94163.00;;;14.70
15680;BMP180;15488;48.114;11.532;2023-04-01T05:46:47;94162.00;;;14.70
15680;BMP180;15488;48.114;11.532;2023-04-01T05:49:14;94176.00;;;14.80
15680;BMP180;15488;48.114;11.532;2023-04-01T05:51:42;94168.00;;;14.70
15680;BMP180;15488;48.114;11.532;2023-04-01T05:54:09;94163.00;;;14.80
15680;BMP180;15488;48.114;11.532;2023-04-01T05:56:37;94168.00;;;14.90
15680;BMP180;15488;48.114;11.532;2023-04-01T05:59:04;94172.00;;;14.80
15680;BMP180;15488;48.114;11.532;2023-04-01T06:01:31;94169.00;;;14.90
15680;BMP180;15488;48.114;11.532;2023-04-01T06:04:00;94177.00;;;14.90
15680;BMP180;15488;48.114;11.532;2023-04-01T06:06:29;94167.00;;;14.90
15680;BMP180;15488;48.114;11.532;2023-04-01T06:09:01;94186.00;;;15.00
15680;BMP180;15488;48.114;11.532;2023-04-01T06:11:37;94176.00;;;14.90
15680;BMP180;15488;48.114;11.532;2023-04-01T06:14:16;94159.00;;;15.00
15680;BMP180;15488;48.114;11.532;2023-04-01T06:17:02;94173.00;;;14.90
15680;BMP180;15488;48.114;11.532;2023-04-01T06:19:39;94166.00;;;14.90
15680;BMP180;15488;48.114;11.532;2023-04-01T06:22:25;94167.00;;;15.10
15680;BMP180;15488;48.114;11.532;2023-04-01T06:25:10;94187.00;;;15.00
15680;BMP180;15488;48.114;11.532;2023-04-01T06:27:55;94168.00;;;14.90
15680;BMP180;15488;48.114;11.532;2023-04-01T06:30:35;94172.00;;;15.10
15680;BMP180;15488;48.114;11.532;2023-04-01T06:33:33;94184.00;;;15.10
15680;BMP180;15488;48.114;11.532;2023-04-01T06:39:09;94180.00;;;15.10
15680;BMP180;15488;48.114;11.532;2023-04-01T06:42:00;94172.00;;;15.10
15680;BMP180;15488;48.114;11.532;2023-04-01T06:44:36;94178.00;;;15.20
15680;BMP180;15488;48.114;11.532;2023-04-01T06:47:14;94166.00;;;15.30
15680;BMP180;15488;48.114;11.532;2023-04-01T06:49:52;94192.00;;;15.20
15680;BMP180;15488;48.114;11.532;2023-04-01T06:52:30;94176.00;;;15.30
15680;BMP180;15488;48.114;11.532;2023-04-01T06:55:17;94181.00;;;15.30
15680;BMP180;15488;48.114;11.532;2023-04-01T06:57:49;94169.00;;;15.50
15680;BMP180;15488;48.114;11.532;2023-04-01T07:00:22;94186.00;;;15.50
15680;BMP180;15488;48.114;11.532;2023-04-01T07:02:56;94178.00;;;15.50
15680;BMP180;15488;48.114;11.532;2023-04-01T07:05:30;94205.00;;;15.50
15680;BMP180;15488;48.114;11.532;2023-04-01T07:08:02;94195.00;;;15.50
15680;BMP180;15488;48.114;11.532;2023-04-01T07:10:37;94189.00;;;15.40
15680;BMP180;15488;48.114;11.532;2023-04-01T07:13:14;94187.00;;;15.50
15680;BMP180;15488;48.114;11.532;2023-04-01T07:15:46;94208.00;;;15.50
15680;BMP180;15488;48.114;11.532;2023-04-01T07:18:18;94209.00;;;15.60
15680;BMP180;15488;48.114;11.532;2023-04-01T07:20:50;94191.00;;;15.50
15680;BMP180;15488;48.114;11.532;2023-04-01T07:23:24;94182.00;;;15.40
15680;BMP180;15488;48.114;11.532;2023-04-01T07:25:55;94195.00;;;15.60
15680;BMP180;15488;48.114;11.532;2023-04-01T07:28:23;94202.00;;;15.50
15680;BMP180;15488;48.114;11.532;2023-04-01T07:31:01;94184.00;;;15.60
15680;BMP180;15488;48.114;11.532;2023-04-01T07:33:39;94188.00;;;15.60
15680;BMP180;15488;48.114;11.532;2023-04-01T07:36:10;94198.00;;;15.60
15680;BMP180;15488;48.114;11.532;2023-04-01T07:38:52;94177.00;;;15.60
15680;BMP180;15488;48.114;11.532;2023-04-01T07:41:31;94184.00;;;15.60
15680;BMP180;15488;48.114;11.532;2023-04-01T07:44:08;94185.00;;;15.60
15680;BMP180;15488;48.114;11.532;2023-04-01T07:46:53;94228.00;;;15.60
15680;BMP180;15488;48.114;11.532;2023-04-01T07:49:28;94192.00;;;15.60
15680;BMP180;15488;48.114;11.532;2023-04-01T07:52:00;94203.00;;;15.60
15680;BMP180;15488;48.114;11.532;2023-04-01T07:54:35;94190.00;;;15.60
15680;BMP180;15488;48.114;11.532;2023-04-01T07:57:11;94211.00;;;15.70
15680;BMP180;15488;48.114;11.532;2023-04-01T07:59:46;94207.00;;;15.70
15680;BMP180;15488;48.114;11.532;2023-04-01T08:02:26;94202.00;;;15.80
15680;BMP180;15488;48.114;11.532;2023-04-01T08:05:04;94211.00;;;15.90
15680;BMP180;15488;48.114;11.532;2023-04-01T08:07:43;94208.00;;;15.90
15680;BMP180;15488;48.114;11.532;2023-04-01T08:10:18;94201.00;;;15.90
15680;BMP180;15488;48.114;11.532;2023-04-01T08:12:55;94197.00;;;16.00
15680;BMP180;15488;48.114;11.532;2023-04-01T08:15:27;94222.00;;;16.00
15680;BMP180;15488;48.114;11.532;2023-04-01T08:18:04;94212.00;;;16.10
15680;BMP180;15488;48.114;11.532;2023-04-01T08:20:39;94192.00;;;16.20
15680;BMP180;15488;48.114;11.532;2023-04-01T08:23:13;94192.00;;;16.20
15680;BMP180;15488;48.114;11.532;2023-04-01T08:25:47;94192.00;;;16.40
15680;BMP180;15488;48.114;11.532;2023-04-01T08:28:20;94193.00;;;16.40
15680;BMP180;15488;48.114;11.532;2023-04-01T08:30:52;94194.00;;;16.40
15680;BMP180;15488;48.114;11.532;2023-04-01T08:33:24;94205.00;;;16.40
15680;BMP180;15488;48.114;11.532;2023-04-01T08:35:54;94183.00;;;16.40
15680;BMP180;15488;48.114;11.532;2023-04-01T08:38:29;94211.00;;;16.40
15680;BMP180;15488;48.114;11.532;2023-04-01T08:44:21;94187.00;;;16.50
15680;BMP180;15488;48.114;11.532;2023-04-01T08:50:01;94171.00;;;16.60
15680;BMP180;15488;48.114;11.532;2023-04-01T08:52:36;94176.00;;;16.70
15680;BMP180;15488;48.114;11.532;2023-04-01T08:55:27;94199.00;;;16.70
15680;BMP180;15488;48.114;11.532;2023-04-01T09:01:14;94182.00;;;16.80
15680;BMP180;15488;48.114;11.532;2023-04-01T09:03:58;94196.00;;;16.90
15680;BMP180;15488;48.114;11.532;2023-04-01T09:06:37;94214.00;;;16.90
15680;BMP180;15488;48.114;11.532;2023-04-01T09:09:40;94201.00;;;16.90
15680;BMP180;15488;48.114;11.532;2023-04-01T09:12:44;94194.00;;;16.90
15680;BMP180;15488;48.114;11.532;2023-04-01T09:15:45;94180.00;;;16.90
15680;BMP180;15488;48.114;11.532;2023-04-01T09:21:41;94177.00;;;16.90
15680;BMP180;15488;48.114;11.532;2023-04-01T09:24:26;94180.00;;;16.90
15680;BMP180;15488;48.114;11.532;2023-04-01T09:27:11;94197.00;;;17.00
15680;BMP180;15488;48.114;11.532;2023-04-01T09:33:16;94169.00;;;17.30
15680;BMP180;15488;48.114;11.532;2023-04-01T09:36:03;94156.00;;;17.30
15680;BMP180;15488;48.114;11.532;2023-04-01T09:38:43;94158.00;;;17.40
15680;BMP180;15488;48.114;11.532;2023-04-01T09:41:22;94163.00;;;17.50
15680;BMP180;15488;48.114;11.532;2023-04-01T09:44:02;94149.00;;;17.60
15680;BMP180;15488;48.114;11.532;2023-04-01T09:46:52;94159.00;;;17.60
15680;BMP180;15488;48.114;11.532;2023-04-01T09:49:41;94143.00;;;17.70
15680;BMP180;15488;48.114;11.532;2023-04-01T09:52:18;94159.00;;;17.70
15680;BMP180;15488;48.114;11.532;2023-04-01T09:55:06;94137.00;;;17.70
15680;BMP180;15488;48.114;11.532;2023-04-01T09:58:06;94148.00;;;17.90
15680;BMP180;15488;48.114;11.532;2023-04-01T10:01:17;94150.00;;;17.80
15680;BMP180;15488;48.114;11.532;2023-04-01T10:07:35;94135.00;;;17.90
15680;BMP180;15488;48.114;11.532;2023-04-01T10:10:28;94138.00;;;18.00
15680;BMP180;15488;48.114;11.532;2023-04-01T10:13:25;94122.00;;;18.00
15680;BMP180;15488;48.114;11.532;2023-04-01T10:16:14;94154.00;;;18.00
15680;BMP180;15488;48.114;11.532;2023-04-01T10:22:15;94147.00;;;18.00
15680;BMP180;15488;48.114;11.532;2023-04-01T10:25:16;94146.00;;;18.00
15680;BMP180;15488;48.114;11.532;2023-04-01T10:28:12;94148.00;;;18.00
15680;BMP180;15488;48.114;11.532;2023-04-01T10:31:06;94119.00;;;17.80
15680;BMP180;15488;48.114;11.532;2023-04-01T10:34:05;94136.00;;;17.90
15680;BMP180;15488;48.114;11.532;2023-04-01T10:36:52;94135.00;;;17.90
15680;BMP180;15488;48.114;11.532;2023-04-01T10:49:00;94153.00;;;18.00
15680;BMP180;15488;48.114;11.532;2023-04-01T10:52:02;94144.00;;;18.10
15680;BMP180;15488;48.114;11.532;2023-04-01T10:54:47;94150.00;;;18.00
15680;BMP180;15488;48.114;11.532;2023-04-01T10:57:40;94166.00;;;17.90
15680;BMP180;15488;48.114;11.532;2023-04-01T11:00:36;94157.00;;;18.00
15680;BMP180;15488;48.114;11.532;2023-04-01T11:09:44;94188.00;;;17.80
15680;BMP180;15488;48.114;11.532;2023-04-01T11:12:41;94158.00;;;17.70
15680;BMP180;15488;48.114;11.532;2023-04-01T11:15:37;94166.00;;;17.50
15680;BMP180;15488;48.114;11.532;2023-04-01T11:21:31;94177.00;;;17.40
15680;BMP180;15488;48.114;11.532;2023-04-01T11:27:01;94180.00;;;17.30
15680;BMP180;15488;48.114;11.532;2023-04-01T11:30:01;94184.00;;;17.20
15680;BMP180;15488;48.114;11.532;2023-04-01T11:32:49;94173.00;;;17.30
15680;BMP180;15488;48.114;11.532;2023-04-01T11:38:27;94181.00;;;17.30
15680;BMP180;15488;48.114;11.532;2023-04-01T11:41:08;94197.00;;;17.10
15680;BMP180;15488;48.114;11.532;2023-04-01T11:43:46;94189.00;;;17.00
15680;BMP180;15488;48.114;11.532;2023-04-01T11:46:20;94194.00;;;17.00
15680;BMP180;15488;48.114;11.532;2023-04-01T11:49:00;94190.00;;;17.00
15680;BMP180;15488;48.114;11.532;2023-04-01T11:51:43;94210.00;;;17.00
15680;BMP180;15488;48.114;11.532;2023-04-01T11:54:36;94222.00;;;16.90
15680;BMP180;15488;48.114;11.532;2023-04-01T11:57:19;94213.00;;;16.70
15680;BMP180;15488;48.114;11.532;2023-04-01T12:02:46;94231.00;;;16.70
15680;BMP180;15488;48.114;11.532;2023-04-01T12:05:28;94216.00;;;16.50
15680;BMP180;15488;48.114;11.532;2023-04-01T12:08:10;94219.00;;;16.50
15680;BMP180;15488;48.114;11.532;2023-04-01T12:10:46;94206.00;;;16.40
15680;BMP180;15488;48.114;11.532;2023-04-01T12:13:30;94226.00;;;16.40
15680;BMP180;15488;48.114;11.532;2023-04-01T12:16:13;94214.00;;;16.30
15680;BMP180;15488;48.114;11.532;2023-04-01T12:18:48;94214.00;;;16.30
15680;BMP180;15488;48.114;11.532;2023-04-01T12:21:25;94214.00;;;16.20
15680;BMP180;15488;48.114;11.532;2023-04-01T12:27:10;94210.00;;;16.30
15680;BMP180;15488;48.114;11.532;2023-04-01T12:29:52;94214.00;;;16.20
15680;BMP180;15488;48.114;11.532;2023-04-01T12:32:28;94210.00;;;16.20
15680;BMP180;15488;48.114;11.532;2023-04-01T12:35:13;94212.00;;;16.20
15680;BMP180;15488;48.114;11.532;2023-04-01T12:37:57;94212.00;;;16.20
15680;BMP180;15488;48.114;11.532;2023-04-01T12:40:38;94214.00;;;16.10
15680;BMP180;15488;48.114;11.532;2023-04-01T12:43:29;94209.00;;;16.00
15680;BMP180;15488;48.114;11.532;2023-04-01T12:46:09;94218.00;;;16.00
15680;BMP180;15488;48.114;11.532;2023-04-01T12:49:05;94211.00;;;16.00
15680;BMP180;15488;48.114;11.532;2023-04-01T12:51:53;94210.00;;;16.00
15680;BMP180;15488;48.114;11.532;2023-04-01T13:00:32;94205.00;;;16.00
15680;BMP180;15488;48.114;11.532;2023-04-01T13:03:19;94208.00;;;15.90
15680;BMP180;15488;48.114;11.532;2023-04-01T13:09:11;94209.00;;;15.90
15680;BMP180;15488;48.114;11.532;2023-04-01T13:11:55;94206.00;;;15.90
15680;BMP180;15488;48.114;11.532;2023-04-01T13:17:32;94222.00;;;16.10
15680;BMP180;15488;48.114;11.532;2023-04-01T13:20:06;94214.00;;;16.00
15680;BMP180;15488;48.114;11.532;2023-04-01T13:22:52;94235.00;;;16.10
15680;BMP180;15488;48.114;11.532;2023-04-01T13:25:26;94228.00;;;16.00
15680;BMP180;15488;48.114;11.532;2023-04-01T13:28:03;94226.00;;;16.10
15680;BMP180;15488;48.114;11.532;2023-04-01T13:30:37;94228.00;;;16.00
15680;BMP180;15488;48.114;11.532;2023-04-01T13:33:14;94229.00;;;15.90
15680;BMP180;15488;48.114;11.532;2023-04-01T13:35:48;94229.00;;;15.90
15680;BMP180;15488;48.114;11.532;2023-04-01T13:38:39;94237.00;;;15.90
15680;BMP180;15488;48.114;11.532;2023-04-01T13:41:16;94243.00;;;16.00
15680;BMP180;15488;48.114;11.532;2023-04-01T13:43:49;94239.00;;;16.00
15680;BMP180;15488;48.114;11.532;2023-04-01T13:46:32;94234.00;;;15.90
15680;BMP180;15488;48.114;11.532;2023-04-01T13:49:31;94240.00;;;15.90
15680;BMP180;15488;48.114;11.532;2023-04-01T13:52:17;94222.00;;;15.70
15680;BMP180;15488;48.114;11.532;2023-04-01T13:55:16;94232.00;;;15.70
15680;BMP180;15488;48.114;11.532;2023-04-01T13:57:59;94233.00;;;15.60
15680;BMP180;15488;48.114;11.532;2023-04-01T14:00:50;94232.00;;;15.70
15680;BMP180;15488;48.114;11.532;2023-04-01T14:03:38;94245.00;;;15.70
15680;BMP180;15488;48.114;11.532;2023-04-01T14:06:27;94228.00;;;15.60
15680;BMP180;15488;48.114;11.532;2023-04-01T14:09:20;94228.00;;;15.70
15680;BMP180;15488;48.114;11.532;2023-04-01T14:11:56;94239.00;;;15.70
15680;BMP180;15488;48.114;11.532;2023-04-01T14:14:42;94224.00;;;15.70
15680;BMP180;15488;48.114;11.532;2023-04-01T14:17:30;94220.00;;;15.70
15680;BMP180;15488;48.114;11.532;2023-04-01T14:20:27;94221.00;;;15.80
15680;BMP180;15488;48.114;11.532;2023-04-01T14:23:34;94219.00;;;15.80
15680;BMP180;15488;48.114;11.532;2023-04-01T14:26:17;94230.00;;;15.80
15680;BMP180;15488;48.114;11.532;2023-04-01T14:28:54;94227.00;;;15.90
15680;BMP180;15488;48.114;11.532;2023-04-01T14:31:34;94231.00;;;15.80
15680;BMP180;15488;48.114;11.532;2023-04-01T14:34:18;94229.00;;;15.90
15680;BMP180;15488;48.114;11.532;2023-04-01T14:37:01;94242.00;;;15.90
15680;BMP180;15488;48.114;11.532;2023-04-01T14:48:33;94232.00;;;16.00
15680;BMP180;15488;48.114;11.532;2023-04-01T14:51:16;94246.00;;;16.00
15680;BMP180;15488;48.114;11.532;2023-04-01T14:53:58;94240.00;;;16.00
15680;BMP180;15488;48.114;11.532;2023-04-01T14:56:44;94254.00;;;16.00
15680;BMP180;15488;48.114;11.532;2023-04-01T14:59:17;94245.00;;;16.00
15680;BMP180;15488;48.114;11.532;2023-04-01T15:01:58;94254.00;;;16.00
15680;BMP180;15488;48.114;11.532;2023-04-01T15:04:46;94240.00;;;16.00
15680;BMP180;15488;48.114;11.532;2023-04-01T15:07:35;94234.00;;;16.00
15680;BMP180;15488;48.114;11.532;2023-04-01T15:10:12;94235.00;;;16.00
15680;BMP180;15488;48.114;11.532;2023-04-01T15:12:53;94241.00;;;16.00
15680;BMP180;15488;48.114;11.532;2023-04-01T15:15:31;94236.00;;;16.10
15680;BMP180;15488;48.114;11.532;2023-04-01T15:18:09;94248.00;;;16.10
15680;BMP180;15488;48.114;11.532;2023-04-01T15:21:09;94244.00;;;16.10
15680;BMP180;15488;48.114;11.532;2023-04-01T15:23:49;94255.00;;;16.20
15680;BMP180;15488;48.114;11.532;2023-04-01T15:32:37;94253.00;;;16.10
15680;BMP180;15488;48.114;11.532;2023-04-01T15:35:19;94257.00;;;16.30
15680;BMP180;15488;48.114;11.532;2023-04-01T15:37:53;94254.00;;;16.10
15680;BMP180;15488;48.114;11.532;2023-04-01T15:40:26;94264.00;;;16.10
15680;BMP180;15488;48.114;11.532;2023-04-01T15:43:04;94255.00;;;16.30
15680;BMP180;15488;48.114;11.532;2023-04-01T15:45:41;94268.00;;;16.20
15680;BMP180;15488;48.114;11.532;2023-04-01T15:48:33;94270.00;;;16.30
15680;BMP180;15488;48.114;11.532;2023-04-01T15:51:11;94282.00;;;16.40
15680;BMP180;15488;48.114;11.532;2023-04-01T15:54:25;94285.00;;;16.50
15680;BMP180;15488;48.114;11.532;2023-04-01T15:57:09;94257.00;;;16.50
15680;BMP180;15488;48.114;11.532;2023-04-01T16:02:48;94268.00;;;16.70
15680;BMP180;15488;48.114;11.532;2023-04-01T16:05:34;94267.00;;;16.70
15680;BMP180;15488;48.114;11.532;2023-04-01T16:08:26;94268.00;;;16.80
15680;BMP180;15488;48.114;11.532;2023-04-01T16:11:11;94259.00;;;16.80
15680;BMP180;15488;48.114;11.532;2023-04-01T16:13:51;94276.00;;;16.90
15680;BMP180;15488;48.114;11.532;2023-04-01T16:16:31;94287.00;;;16.90
15680;BMP180;15488;48.114;11.532;2023-04-01T16:19:22;94266.00;;;16.90
15680;BMP180;15488;48.114;11.532;2023-04-01T16:22:03;94269.00;;;16.80